Time;durP1;ratioP1;P1;durP2;ratioP2;P2;SDS_P1;SDS_P2;PMS_P1;PMS_P2;Temp;Humidity;BMP_temperature;BMP_pressure;BME280_temperature;BME280_humidity;BME280_pressure;Samples;Min_cycle;Max_cycle;Signal;HPM_P1;HPM_P2
2023/07/29 00:29:28;;;;;;;7.75;2.72;;;17.10;74.10;;;;;;5047239;28;20056;-72
2023/07/29 00:31:55;;;;;;;7.65;2.75;;;17.20;74.90;;;;;;5049902;28;20041;-71
2023/07/29 00:34:22;;;;;;;14.60;3.15;;;17.20;74.50;;;;;;5050290;28;20123;-72
2023/07/29 00:36:49;;;;;;;4.25;1.70;;;17.30;74.30;;;;;;5050513;28;20033;-72
2023/07/29 00:39:19;;;;;;;3.53;1.95;;;17.50;71.20;;;;;;5074189;28;20415;-72
2023/07/29 00:41:46;;;;;;;16.50;2.83;;;17.70;70.70;;;;;;5071064;28;20037;-72
2023/07/29 00:44:13;;;;;;;5.85;2.20;;;17.80;70.70;;;;;;5029695;28;20033;-72
2023/07/29 00:46:41;;;;;;;6.40;2.70;;;17.80;70.30;;;;;;5032492;28;20083;-72
2023/07/29 00:49:09;;;;;;;8.32;2.58;;;17.90;71.70;;;;;;5033250;28;20116;-72
2023/07/29 00:51:45;;;;;;;2.58;1.70;;;18.00;71.80;;;;;;5051020;28;20040;-72
2023/07/29 00:54:12;;;;;;;7.05;2.25;;;18.10;68.70;;;;;;5051059;28;20043;-72
2023/07/29 00:56:39;;;;;;;4.00;1.80;;;18.20;68.70;;;;;;5064700;28;20128;-72
2023/07/29 00:59:07;;;;;;;4.10;1.92;;;18.30;65.80;;;;;;5029834;28;20028;-72
2023/07/29 01:01:35;;;;;;;5.53;2.15;;;18.40;67.00;;;;;;5014120;28;20053;-72
2023/07/29 01:04:02;;;;;;;7.32;2.00;;;18.40;67.60;;;;;;5032899;28;20033;-72
2023/07/29 01:06:51;;;;;;;8.80;1.75;;;18.40;67.40;;;;;;5049258;28;20038;-72
2023/07/29 01:09:49;;;;;;;4.40;1.70;;;18.50;65.70;;;;;;5016320;28;20433;-72
2023/07/29 01:12:31;;;;;;;5.32;1.40;;;18.50;65.40;;;;;;5031670;28;20040;-68
2023/07/29 01:15:13;;;;;;;3.33;1.20;;;18.60;63.90;;;;;;5032413;28;20072;-68
2023/07/29 01:17:48;;;;;;;2.92;1.55;;;18.70;64.20;;;;;;5050156;28;20029;-68
2023/07/29 01:20:17;;;;;;;2.42;1.35;;;18.70;64.00;;;;;;5017190;28;20032;-68
2023/07/29 01:22:44;;;;;;;7.68;1.90;;;18.80;63.20;;;;;;5032556;28;20051;-66
2023/07/29 01:25:11;;;;;;;5.80;1.90;;;18.80;63.90;;;;;;5049372;28;20072;-67
2023/07/29 01:27:38;;;;;;;9.88;2.28;;;18.80;63.30;;;;;;5055354;28;20094;-69
2023/07/29 01:30:06;;;;;;;4.00;1.40;;;18.80;62.20;;;;;;5068793;28;20119;-69
2023/07/29 01:33:00;;;;;;;5.32;1.55;;;18.90;62.20;;;;;;5050627;28;20155;-69
2023/07/29 01:35:55;;;;;;;2.88;1.42;;;18.90;62.90;;;;;;5069647;28;20124;-69
2023/07/29 01:38:33;;;;;;;6.65;1.52;;;18.90;61.90;;;;;;5052502;28;20493;-69
2023/07/29 01:41:01;;;;;;;5.63;1.67;;;19.10;62.40;;;;;;5057364;28;20421;-69
2023/07/29 01:43:31;;;;;;;4.18;1.48;;;19.10;62.30;;;;;;5055389;28;20036;-69
2023/07/29 01:45:59;;;;;;;8.80;4.78;;;19.30;62.10;;;;;;5038658;28;20123;-69
2023/07/29 01:48:27;;;;;;;8.90;3.72;;;19.30;61.50;;;;;;5038754;28;20088;-69
2023/07/29 01:50:54;;;;;;;5.20;2.72;;;19.40;62.00;;;;;;5090092;28;20032;-68
2023/07/29 01:53:21;;;;;;;3.88;2.15;;;19.50;62.00;;;;;;5072251;28;20086;-69
2023/07/29 01:55:49;;;;;;;3.35;1.60;;;19.50;61.70;;;;;;5089900;28;20047;-70
2023/07/29 01:58:16;;;;;;;9.65;1.90;;;19.50;61.10;;;;;;5089750;28;20032;-70
2023/07/29 02:00:43;;;;;;;2.60;1.30;;;19.50;62.00;;;;;;5087514;28;20059;-70
2023/07/29 02:03:11;;;;;;;4.13;1.40;;;19.40;62.00;;;;;;5089429;28;20094;-70
2023/07/29 02:05:38;;;;;;;4.90;1.27;;;19.30;61.40;;;;;;5089585;28;20063;-69
2023/07/29 02:08:05;;;;;;;2.95;1.40;;;19.30;60.70;;;;;;5089490;28;20501;-70
2023/07/29 02:10:33;;;;;;;2.42;1.20;;;19.30;61.70;;;;;;5071499;28;20128;-70
2023/07/29 02:13:00;;;;;;;3.17;1.40;;;19.20;61.90;;;;;;5089249;28;20469;-70
2023/07/29 02:15:28;;;;;;;4.50;1.70;;;19.20;61.40;;;;;;5089865;28;20044;-68
2023/07/29 02:17:55;;;;;;;3.58;1.45;;;19.10;61.60;;;;;;5089453;28;20650;-69
2023/07/29 02:20:22;;;;;;;4.45;1.20;;;19.10;62.30;;;;;;5071538;28;20039;-68
2023/07/29 02:22:49;;;;;;;4.38;1.42;;;19.00;61.30;;;;;;5054744;28;20048;-68
2023/07/29 23:35:19;;;;;;;;;;;14.70;81.60;;;;;;5044189;28;20047;-74
2023/07/29 23:37:46;;;;;;;6.22;4.55;;;14.70;81.30;;;;;;5067698;28;19960;-74
2023/07/29 23:40:13;;;;;;;8.63;5.13;;;14.80;81.00;;;;;;5068369;28;20029;-74
2023/07/29 23:42:41;;;;;;;7.63;5.00;;;14.90;80.70;;;;;;5057278;28;20082;-71
2023/07/29 23:45:09;;;;;;;12.18;5.10;;;14.90;80.70;;;;;;5066853;28;20025;-72
2023/07/29 23:47:37;;;;;;;8.70;4.93;;;15.00;80.40;;;;;;5056548;28;20029;-71
2023/07/29 23:50:04;;;;;;;12.00;5.32;;;15.10;80.20;;;;;;5074424;28;20043;-70
2023/07/29 23:52:32;;;;;;;7.60;4.93;;;15.10;79.90;;;;;;5054772;28;20035;-70
2023/07/29 23:55:00;;;;;;;12.63;5.18;;;15.20;79.80;;;;;;5056475;28;20100;-70
2023/07/29 23:57:27;;;;;;;10.57;5.43;;;15.30;79.70;;;;;;5053317;28;20037;-70
2023/07/29 23:59:54;;;;;;;10.68;4.97;;;15.30;79.90;;;;;;5030170;28;20109;-71
